Time;durP1;ratioP1;P1;durP2;ratioP2;P2;SDS_P1;SDS_P2;PMS_P1;PMS_P2;Temp;Humidity;BMP_temperature;BMP_pressure;BME280_temperature;BME280_humidity;BME280_pressure;Samples;Min_cycle;Max_cycle;Signal;HPM_P1;HPM_P2
2021/03/06 00:01:05;;;;;;;;;;;;;;;10.22;35.50;102566.19;4794652;29;20000;-77
2021/03/06 00:03:32;;;;;;;;;;;;;;;10.18;35.64;102569.69;4774886;29;20445;-78
2021/03/06 00:05:59;;;;;;;;;;;;;;;10.12;35.28;102565.28;4777917;29;20036;-78
2021/03/06 00:08:26;;;;;;;;;;;;;;;10.10;35.48;102571.44;4794708;29;20405;-76
2021/03/06 00:10:54;;;;;;;;;;;;;;;10.05;35.22;102571.41;4800976;29;19975;-77
2021/03/06 00:13:23;;;;;;;;;;;;;;;10.03;35.39;102570.50;4793763;29;20011;-77
2021/03/06 00:15:49;;;;;;;;;;;;;;;9.97;35.39;102566.09;4799814;29;20777;-77
2021/03/06 00:18:16;;;;;;;;;;;;;;;9.93;35.06;102566.09;4792137;29;20353;-77
2021/03/06 00:20:43;;;;;;;;;;;;;;;9.91;35.21;102568.69;4801145;29;19950;-77
2021/03/06 00:23:10;;;;;;;;;;;;;;;9.86;35.25;102558.97;4794230;29;19942;-77
2021/03/06 00:25:37;;;;;;;;;;;;;;;9.80;35.05;102555.44;4802792;29;20458;-77
2021/03/06 00:28:04;;;;;;;;;;;;;;;9.75;35.51;102559.81;4796726;29;20404;-77
2021/03/06 00:30:32;;;;;;;;;;;;;;;9.68;35.69;102558.03;4787186;29;19936;-77
2021/03/06 00:32:59;;;;;;;;;;;;;;;9.65;35.68;102568.56;4773234;29;20338;-77
2021/03/06 00:35:26;;;;;;;;;;;;;;;9.60;35.55;102567.66;4769794;29;20432;-77
2021/03/06 00:37:53;;;;;;;;;;;;;;;9.55;35.45;102564.13;4779353;29;20380;-77
2021/03/06 00:40:20;;;;;;;;;;;;;;;9.54;35.98;102572.91;4785432;29;20906;-77
2021/03/06 00:42:47;;;;;;;;;;;;;;;9.47;36.00;102569.34;4781796;29;20407;-77
2021/03/06 00:45:14;;;;;;;;;;;;;;;9.42;35.96;102564.03;4787358;29;19936;-77
2021/03/06 00:47:41;;;;;;;;;;;;;;;9.40;35.51;102562.25;4770936;29;19937;-77
2021/03/06 00:50:13;;;;;;;;;;;;;;;9.37;35.43;102556.97;4782555;29;19932;-77
2021/03/06 00:52:41;;;;;;;;;;;;;;;9.27;36.14;102542.78;4765280;29;20755;-77
2021/03/06 00:55:11;;;;;;;;;;;;;;;9.26;35.81;102559.53;4784169;29;19936;-77
2021/03/06 00:57:39;;;;;;;;;;;;;;;9.23;36.04;102552.47;4781993;29;19944;-77
2021/03/06 01:00:08;;;;;;;;;;;;;;;9.20;36.08;102554.19;4764338;29;20012;-77
2021/03/06 01:02:35;;;;;;;;;;;;;;;9.17;35.90;102555.06;4778336;29;19975;-77
2021/03/06 01:05:06;;;;;;;;;;;;;;;9.14;36.01;102550.66;4767865;29;20299;-77
2021/03/06 01:07:33;;;;;;;;;;;;;;;9.08;36.19;102547.94;4781954;29;19992;-77
2021/03/06 01:10:00;;;;;;;;;;;;;;;9.07;36.02;102556.72;4785427;29;20153;-76
2021/03/06 01:12:27;;;;;;;;;;;;;;;9.04;36.10;102554.06;4774666;29;19981;-76
2021/03/06 01:14:54;;;;;;;;;;;;;;;9.01;35.93;102547.88;4784008;29;19984;-77
2021/03/06 01:17:21;;;;;;;;;;;;;;;8.95;35.97;102556.66;4773489;29;19936;-77
2021/03/06 01:19:47;;;;;;;;;;;;;;;8.89;36.07;102552.22;4784923;29;19940;-77
2021/03/06 01:22:15;;;;;;;;;;;;;;;8.84;36.71;102540.72;4774554;29;20003;-76
2021/03/06 01:24:42;;;;;;;;;;;;;;;8.79;36.55;102540.69;4783758;29;20004;-76
2021/03/06 01:27:09;;;;;;;;;;;;;;;8.80;36.36;102545.09;4782833;29;20345;-77
2021/03/06 01:29:39;;;;;;;;;;;;;;;8.73;36.25;102542.38;4782009;29;19936;-77
2021/03/06 01:32:06;;;;;;;;;;;;;;;8.74;35.92;102542.38;4774477;29;20200;-78
2021/03/06 01:34:39;;;;;;;;;;;;;;;8.68;36.28;102531.81;4788823;29;19964;-77
2021/03/06 01:37:06;;;;;;;;;;;;;;;8.61;36.60;102524.69;4765257;29;20358;-78
2021/03/06 01:39:57;;;;;;;;;;;;;;;8.59;36.51;102531.72;4772055;29;20056;-77
2021/03/06 01:42:25;;;;;;;;;;;;;;;8.56;36.38;102523.75;4764442;29;20403;-77
2021/03/06 01:44:52;;;;;;;;;;;;;;;8.54;36.30;102526.38;4766195;29;19943;-78
2021/03/06 01:47:19;;;;;;;;;;;;;;;8.48;36.38;102515.75;4761342;29;20590;-78
2021/03/06 01:49:47;;;;;;;;;;;;;;;8.45;36.49;102511.34;4768949;29;19942;-78
2021/03/06 01:52:14;;;;;;;;;;;;;;;8.43;36.49;102510.44;4760468;29;20032;-78
2021/03/06 01:54:54;;;;;;;;;;;;;;;8.42;36.31;102505.16;4762311;29;21800;-77
2021/03/06 01:57:21;;;;;;;;;;;;;;;8.31;36.74;102505.00;4763098;29;19928;-77
2021/03/06 01:59:49;;;;;;;;;;;;;;;8.31;36.63;102505.00;4761733;29;20351;-77
2021/03/06 02:02:16;;;;;;;;;;;;;;;8.28;36.88;102500.59;4754233;29;20089;-77
2021/03/06 02:04:43;;;;;;;;;;;;;;;8.26;36.41;102506.72;4756483;29;20447;-77
2021/03/06 02:07:10;;;;;;;;;;;;;;;8.20;36.76;102504.03;4752592;29;20343;-76
2021/03/06 02:09:40;;;;;;;;;;;;;;;8.18;36.49;102506.66;4761467;29;19936;-76
2021/03/06 02:12:12;;;;;;;;;;;;;;;8.13;36.53;102500.47;4752091;29;20296;-76
2021/03/06 02:14:51;;;;;;;;;;;;;;;8.07;36.84;102498.63;4745756;29;20532;-77
2021/03/06 02:17:22;;;;;;;;;;;;;;;8.05;36.86;102496.81;4753066;29;20039;-76
2021/03/06 02:20:00;;;;;;;;;;;;;;;8.01;36.77;102495.94;4757462;29;19989;-76
2021/03/06 02:22:44;;;;;;;;;;;;;;;7.96;36.57;102503.78;4756340;29;19937;-77
2021/03/06 02:25:25;;;;;;;;;;;;;;;7.92;36.57;102494.06;4755230;29;19936;-76
2021/03/06 02:27:57;;;;;;;;;;;;;;;7.90;36.55;102490.50;4743672;29;20587;-77
2021/03/06 02:30:29;;;;;;;;;;;;;;;7.86;36.75;102495.75;4764563;29;19960;-77
2021/03/06 02:32:57;;;;;;;;;;;;;;;7.82;37.04;102494.81;4762717;29;20502;-77
2021/03/06 02:35:26;;;;;;;;;;;;;;;7.80;37.01;102499.19;4773636;29;19948;-76
2021/03/06 02:37:55;;;;;;;;;;;;;;;7.79;36.71;102497.44;4771122;29;19936;-76
2021/03/06 02:40:22;;;;;;;;;;;;;;;7.77;36.95;102494.78;4781635;29;22396;-76
2021/03/06 02:42:49;;;;;;;;;;;;;;;7.73;36.89;102485.03;4770516;29;20494;-77
2021/03/06 02:45:17;;;;;;;;;;;;;;;7.67;36.83;102479.72;4778277;29;19980;-77
2021/03/06 02:47:45;;;;;;;;;;;;;;;7.65;37.06;102487.59;4774630;29;20015;-77
2021/03/06 02:50:13;;;;;;;;;;;;;;;7.61;36.96;102477.88;4780501;29;19985;-76
2021/03/06 02:52:39;;;;;;;;;;;;;;;7.59;37.16;102481.34;4781209;29;19943;-76
2021/03/06 02:55:08;;;;;;;;;;;;;;;7.58;37.11;102471.72;4764110;29;19955;-77
2021/03/06 02:57:47;;;;;;;;;;;;;;;7.53;37.06;102468.13;4768057;29;20334;-77
2021/03/06 03:00:21;;;;;;;;;;;;;;;7.47;36.88;102461.00;4777519;29;20020;-76
2021/03/06 03:02:54;;;;;;;;;;;;;;;7.46;36.85;102452.25;4779195;29;19929;-77
2021/03/06 03:05:28;;;;;;;;;;;;;;;7.43;37.05;102451.31;4785212;29;20176;-78
2021/03/06 03:07:58;;;;;;;;;;;;;;;7.36;37.08;102447.72;4772571;29;19936;-76
2021/03/06 03:10:28;;;;;;;;;;;;;;;7.34;36.98;102449.47;4778430;29;19936;-76
2021/03/06 03:12:56;;;;;;;;;;;;;;;7.31;37.39;102449.41;4769066;29;20537;-76
2021/03/06 03:15:26;;;;;;;;;;;;;;;7.27;37.24;102450.22;4782142;29;19936;-77
2021/03/06 03:17:55;;;;;;;;;;;;;;;7.22;37.11;102439.66;4772895;29;19944;-76
2021/03/06 03:20:30;;;;;;;;;;;;;;;7.21;37.07;102452.75;4780453;29;20729;-76
2021/03/06 03:23:00;;;;;;;;;;;;;;;7.20;37.25;102448.38;4777853;29;19943;-76
2021/03/06 03:25:28;;;;;;;;;;;;;;;7.18;37.44;102447.47;4775295;29;20084;-76
2021/03/06 03:27:55;;;;;;;;;;;;;;;7.15;37.43;102437.78;4764058;29;20030;-77
2021/03/06 03:30:23;;;;;;;;;;;;;;;7.12;37.48;102427.22;4782998;29;19936;-76
2021/03/06 03:32:50;;;;;;;;;;;;;;;7.10;37.32;102426.31;4778719;29;20020;-76
2021/03/06 03:35:20;;;;;;;;;;;;;;;7.07;37.24;102416.63;4783226;29;20031;-76
2021/03/06 03:37:49;;;;;;;;;;;;;;;7.04;37.45;102420.94;4775081;29;19936;-76
2021/03/06 03:40:17;;;;;;;;;;;;;;;7.01;37.40;102411.25;4773912;29;20447;-76
2021/03/06 03:42:44;;;;;;;;;;;;;;;6.99;37.58;102415.63;4770335;29;19936;-76
2021/03/06 03:45:12;;;;;;;;;;;;;;;6.97;37.51;102419.97;4784861;29;19936;-76
2021/03/06 03:47:40;;;;;;;;;;;;;;;6.92;37.55;102430.44;4776781;29;19962;-74
2021/03/06 03:50:08;;;;;;;;;;;;;;;6.92;37.56;102432.19;4776418;29;20428;-77
2021/03/06 03:52:37;;;;;;;;;;;;;;;6.91;37.52;102439.19;4777207;29;20419;-76
2021/03/06 03:55:05;;;;;;;;;;;;;;;6.87;37.52;102431.22;4777687;29;19993;-76
2021/03/06 03:57:32;;;;;;;;;;;;;;;6.86;37.48;102440.00;4779563;29;19946;-76
2021/03/06 04:00:00;;;;;;;;;;;;;;;6.83;37.56;102438.22;4779979;29;20062;-77
2021/03/06 04:02:31;;;;;;;;;;;;;;;6.80;37.74;102428.53;4782345;29;20556;-76
2021/03/06 04:04:58;;;;;;;;;;;;;;;6.78;37.83;102424.09;4785320;29;20216;-77
2021/03/06 04:07:25;;;;;;;;;;;;;;;6.75;37.56;102421.41;4778809;29;20184;-77
2021/03/06 04:09:53;;;;;;;;;;;;;;;6.69;37.80;102424.84;4778155;29;20023;-76
2021/03/06 04:12:20;;;;;;;;;;;;;;;6.65;37.82;102409.88;4779601;29;19955;-76
2021/03/06 04:14:47;;;;;;;;;;;;;;;6.63;37.73;102406.31;4785703;29;19961;-77
2021/03/06 04:17:14;;;;;;;;;;;;;;;6.61;37.99;102397.53;4781134;29;20335;-76
2021/03/06 04:19:41;;;;;;;;;;;;;;;6.58;37.92;102397.47;4775704;29;19936;-77
2021/03/06 04:22:08;;;;;;;;;;;;;;;6.54;37.83;102399.19;4777816;29;19936;-76
2021/03/06 04:24:41;;;;;;;;;;;;;;;6.52;38.04;102397.41;4777822;29;19936;-76
2021/03/06 04:27:08;;;;;;;;;;;;;;;6.52;38.16;102397.41;4780266;29;20239;-77
2021/03/06 04:29:39;;;;;;;;;;;;;;;6.47;37.89;102400.84;4777222;29;19936;-77
2021/03/06 04:32:06;;;;;;;;;;;;;;;6.46;38.10;102409.59;4778985;29;19943;-77
2021/03/06 04:34:58;;;;;;;;;;;;;;;6.36;38.12;102399.78;4778706;29;21004;-76
2021/03/06 04:37:24;;;;;;;;;;;;;;;6.40;38.22;102411.22;4773852;29;19959;-76
2021/03/06 04:39:52;;;;;;;;;;;;;;;6.35;37.98;102400.63;4779174;29;20384;-77
2021/03/06 04:42:20;;;;;;;;;;;;;;;6.35;37.92;102397.13;4780050;29;20307;-78
2021/03/06 04:44:48;;;;;;;;;;;;;;;6.30;38.15;102391.78;4782724;29;19933;-76
2021/03/06 04:47:15;;;;;;;;;;;;;;;6.26;38.05;102385.56;4778418;29;20107;-76
2021/03/06 04:49:42;;;;;;;;;;;;;;;6.24;38.15;102387.31;4785028;29;20622;-77
2021/03/06 04:52:09;;;;;;;;;;;;;;;6.23;38.44;102388.16;4768324;29;20065;-76
2021/03/06 04:54:38;;;;;;;;;;;;;;;6.21;38.06;102381.09;4780240;29;20319;-77
2021/03/06 04:57:09;;;;;;;;;;;;;;;6.18;38.43;102379.31;4776288;29;19937;-77
2021/03/06 04:59:40;;;;;;;;;;;;;;;6.15;38.22;102369.63;4784163;29;20304;-77
2021/03/06 05:02:07;;;;;;;;;;;;;;;6.14;38.07;102372.25;4772507;29;20394;-76
2021/03/06 05:04:41;;;;;;;;;;;;;;;6.11;38.39;102372.19;4779311;29;22213;-77
2021/03/06 05:07:08;;;;;;;;;;;;;;;6.07;38.26;102368.63;4771574;29;20027;-76
2021/03/06 05:10:00;;;;;;;;;;;;;;;6.05;38.29;102365.06;4779400;29;19977;-77
2021/03/06 05:12:27;;;;;;;;;;;;;;;6.02;38.40;102366.78;4773017;29;20199;-76
2021/03/06 05:14:54;;;;;;;;;;;;;;;6.00;38.21;102376.38;4764291;29;20386;-77
2021/03/06 05:17:21;;;;;;;;;;;;;;;5.97;38.47;102362.28;4775073;29;20155;-76
2021/03/06 05:19:49;;;;;;;;;;;;;;;5.96;37.93;102357.91;4781249;29;19935;-76
2021/03/06 05:22:15;;;;;;;;;;;;;;;5.95;38.09;102355.25;4773942;29;19932;-76
2021/03/06 05:24:42;;;;;;;;;;;;;;;5.95;38.31;102352.63;4768249;29;19936;-76
2021/03/06 05:27:28;;;;;;;;;;;;;;;5.93;38.55;102359.59;4780003;29;21247;-76
2021/03/06 05:29:56;;;;;;;;;;;;;;;5.90;38.45;102354.28;4781474;29;19943;-76
2021/03/06 05:32:23;;;;;;;;;;;;;;;5.88;38.32;102359.50;4775379;29;20388;-76
2021/03/06 05:34:50;;;;;;;;;;;;;;;5.86;38.34;102363.84;4779767;29;19984;-77
2021/03/06 05:37:17;;;;;;;;;;;;;;;5.82;38.58;102352.41;4773398;29;19936;-76
2021/03/06 05:39:44;;;;;;;;;;;;;;;5.82;38.14;102355.03;4767070;29;20216;-77
2021/03/06 05:42:11;;;;;;;;;;;;;;;5.80;38.12;102351.50;4766538;29;21183;-77
2021/03/06 05:44:41;;;;;;;;;;;;;;;5.82;38.54;102355.03;4780396;29;20476;-76
2021/03/06 05:47:09;;;;;;;;;;;;;;;5.78;38.36;102355.81;4774482;29;19937;-77
2021/03/06 05:49:40;;;;;;;;;;;;;;;5.78;38.24;102362.84;4776770;29;19997;-76
2021/03/06 05:52:08;;;;;;;;;;;;;;;5.77;38.36;102355.81;4777529;29;20769;-76
2021/03/06 05:55:00;;;;;;;;;;;;;;;5.73;38.55;102353.97;4782644;29;19943;-77
2021/03/06 05:57:51;;;;;;;;;;;;;;;5.73;38.35;102351.34;4780513;29;19943;-77
2021/03/06 06:00:19;;;;;;;;;;;;;;;5.73;38.61;102352.22;4788395;29;20212;-76
2021/03/06 06:02:56;;;;;;;;;;;;;;;5.71;38.38;102347.81;4774363;29;19936;-76
2021/03/06 06:05:23;;;;;;;;;;;;;;;5.71;38.38;102353.94;4774009;29;21332;-77
2021/03/06 06:07:51;;;;;;;;;;;;;;;5.70;38.52;102353.91;4774723;29;20019;-76
2021/03/06 06:10:17;;;;;;;;;;;;;;;5.71;38.59;102353.06;4784069;29;19936;-76
2021/03/06 06:12:45;;;;;;;;;;;;;;;5.72;38.48;102354.84;4777771;29;19936;-76
2021/03/06 06:15:12;;;;;;;;;;;;;;;5.72;38.58;102354.84;4786431;29;19943;-76
2021/03/06 07:04:24;;;;;;;;;;;;;;;6.86;37.26;102363.72;5181030;23;19932;-77
2021/03/06 07:06:58;;;;;;;;;;;;;;;6.78;37.69;102366.22;4796731;29;19943;-77
2021/03/06 07:09:26;;;;;;;;;;;;;;;6.56;38.27;102365.03;4781161;29;20194;-77
2021/03/06 07:11:53;;;;;;;;;;;;;;;6.49;38.42;102364.06;4782253;29;19936;-76
2021/03/06 07:14:34;;;;;;;;;;;;;;;6.43;38.54;102364.81;4794392;29;19936;-76
2021/03/06 07:17:04;;;;;;;;;;;;;;;6.44;38.52;102369.22;4793906;29;20497;-78
2021/03/06 07:19:34;;;;;;;;;;;;;;;6.46;38.69;102367.53;4798702;29;21152;-77
2021/03/06 07:22:01;;;;;;;;;;;;;;;6.46;38.99;102370.16;4796699;29;20533;-77
2021/03/06 07:24:30;;;;;;;;;;;;;;;6.48;38.80;102373.66;4780705;29;19932;-76
2021/03/06 07:26:57;;;;;;;;;;;;;;;6.50;39.12;102370.19;4792698;29;20474;-76
2021/03/06 07:29:25;;;;;;;;;;;;;;;6.51;39.17;102369.31;4783860;29;20006;-76
2021/03/06 07:31:53;;;;;;;;;;;;;;;6.52;38.93;102377.22;4792538;29;19936;-76
2021/03/06 07:34:21;;;;;;;;;;;;;;;6.53;39.19;102375.50;4798008;29;20536;-76
2021/03/06 07:36:56;;;;;;;;;;;;;;;6.52;39.39;102365.84;4777411;29;19932;-76
2021/03/06 07:39:24;;;;;;;;;;;;;;;6.54;39.56;102367.63;4778497;29;20321;-76
2021/03/06 07:41:55;;;;;;;;;;;;;;;6.54;39.79;102361.47;4779927;29;20483;-76
2021/03/06 07:44:23;;;;;;;;;;;;;;;6.55;39.74;102358.00;4795443;29;19933;-76
2021/03/06 07:46:50;;;;;;;;;;;;;;;6.54;39.92;102361.47;4776305;29;20665;-75
2021/03/06 07:49:18;;;;;;;;;;;;;;;6.56;39.92;102370.28;4798375;29;20244;-76
2021/03/06 07:51:46;;;;;;;;;;;;;;;6.57;39.81;102369.44;4791461;29;20615;-76
2021/03/06 07:54:15;;;;;;;;;;;;;;;6.58;40.02;102352.78;4775773;29;19936;-76
2021/03/06 07:56:42;;;;;;;;;;;;;;;6.56;40.34;102357.13;4795630;29;20012;-75
2021/03/06 07:59:42;;;;;;;;;;;;;;;6.58;40.25;102355.41;4790740;29;20682;-75
2021/03/06 08:02:25;;;;;;;;;;;;;;;6.63;40.12;102352.00;4799058;29;20630;-76
2021/03/06 08:04:53;;;;;;;;;;;;;;;6.63;40.77;102351.09;4796878;29;19973;-75
2021/03/06 08:07:36;;;;;;;;;;;;;;;6.62;40.44;102344.09;4782874;29;20083;-76
2021/03/06 08:10:05;;;;;;;;;;;;;;;6.68;40.33;102338.03;4801563;29;20030;-74
2021/03/06 08:12:32;;;;;;;;;;;;;;;6.72;40.26;102332.81;4793839;29;20327;-75
2021/03/06 08:15:19;;;;;;;;;;;;;;;6.77;40.24;102332.88;4797978;29;20482;-74
2021/03/06 08:17:48;;;;;;;;;;;;;;;6.89;40.33;102330.41;4781783;29;19963;-75
2021/03/06 08:20:22;;;;;;;;;;;;;;;6.98;40.01;102319.13;4803671;29;19936;-74
2021/03/06 08:23:10;;;;;;;;;;;;;;;7.08;39.82;102312.25;4783711;29;21651;-75
2021/03/06 08:25:39;;;;;;;;;;;;;;;7.18;39.60;102308.84;4801960;29;19972;-74
2021/03/06 08:28:26;;;;;;;;;;;;;;;7.13;39.88;102314.06;4775654;29;20515;-75
2021/03/06 08:30:54;;;;;;;;;;;;;;;7.11;40.02;102309.66;4798662;29;19932;-75
2021/03/06 08:33:23;;;;;;;;;;;;;;;7.08;40.27;102315.75;4803702;29;19932;-75
2021/03/06 08:36:12;;;;;;;;;;;;;;;7.06;40.13;102312.22;4782449;29;20242;-75
2021/03/06 08:38:39;;;;;;;;;;;;;;;7.08;40.44;102312.25;4798488;29;19992;-74
2021/03/06 08:41:08;;;;;;;;;;;;;;;7.10;40.62;102313.13;4790922;29;19959;-75
2021/03/06 08:43:35;;;;;;;;;;;;;;;7.08;40.44;102302.59;4795665;29;19997;-75
2021/03/06 08:46:03;;;;;;;;;;;;;;;7.16;40.17;102292.16;4797160;29;19936;-75
2021/03/06 08:48:30;;;;;;;;;;;;;;;7.18;40.16;102284.28;4793960;29;19937;-75
2021/03/06 08:50:58;;;;;;;;;;;;;;;7.15;40.47;102279.88;4802104;29;19936;-75
2021/03/06 08:53:25;;;;;;;;;;;;;;;7.20;40.69;102282.56;4795492;29;19944;-75
2021/03/06 08:56:00;;;;;;;;;;;;;;;7.26;40.17;102277.34;4797365;29;19936;-75
2021/03/06 08:58:29;;;;;;;;;;;;;;;7.25;40.37;102281.75;4786752;29;20484;-75
2021/03/06 09:00:56;;;;;;;;;;;;;;;7.25;40.39;102272.94;4795446;29;19937;-75
2021/03/06 09:03:28;;;;;;;;;;;;;;;7.28;40.40;102273.88;4789421;29;19985;-75
2021/03/06 09:05:56;;;;;;;;;;;;;;;7.35;40.01;102276.56;4788020;29;20206;-75
2021/03/06 09:08:24;;;;;;;;;;;;;;;7.47;39.99;102271.41;4796287;29;19937;-75
2021/03/06 09:10:52;;;;;;;;;;;;;;;7.63;40.00;102275.09;4787400;29;19936;-75
2021/03/06 09:13:22;;;;;;;;;;;;;;;7.63;40.10;102272.47;4792873;29;19932;-75
2021/03/06 09:15:53;;;;;;;;;;;;;;;7.59;40.04;102271.56;4779674;29;20455;-75
2021/03/06 09:18:23;;;;;;;;;;;;;;;7.54;40.25;102267.09;4799281;29;19936;-75
2021/03/06 09:20:52;;;;;;;;;;;;;;;7.65;40.06;102268.94;4777830;29;19937;-75
2021/03/06 09:23:24;;;;;;;;;;;;;;;7.71;40.17;102277.78;4787293;29;20450;-75
2021/03/06 09:25:52;;;;;;;;;;;;;;;7.81;40.05;102274.34;4792029;29;19936;-75
2021/03/06 09:28:22;;;;;;;;;;;;;;;7.78;39.69;102267.31;4794607;29;19936;-75
2021/03/06 09:30:49;;;;;;;;;;;;;;;7.94;39.95;102275.34;4799851;29;19944;-75
2021/03/06 09:33:26;;;;;;;;;;;;;;;8.22;39.22;102272.91;4794022;29;20841;-76
2021/03/06 09:35:54;;;;;;;;;;;;;;;8.41;38.80;102273.94;4787112;29;19947;-76
2021/03/06 09:38:21;;;;;;;;;;;;;;;8.56;38.62;102270.50;4794426;29;19937;-77
2021/03/06 09:40:49;;;;;;;;;;;;;;;9.20;37.21;102263.75;4794483;29;20324;-74
2021/03/06 09:43:24;;;;;;;;;;;;;;;9.25;36.87;102264.63;4798807;29;19936;-74
2021/03/06 09:45:53;;;;;;;;;;;;;;;9.18;37.38;102258.47;4781781;29;19935;-74
2021/03/06 09:48:21;;;;;;;;;;;;;;;9.31;37.40;102254.06;4796511;29;20043;-75
2021/03/06 09:50:52;;;;;;;;;;;;;;;9.63;36.38;102256.75;4796225;29;19936;-75
2021/03/06 09:53:21;;;;;;;;;;;;;;;9.66;37.06;102255.88;4789548;29;20289;-75
2021/03/06 09:56:01;;;;;;;;;;;;;;;9.69;37.18;102255.00;4794333;29;19937;-73
2021/03/06 09:58:28;;;;;;;;;;;;;;;9.83;36.09;102255.00;4798664;29;19989;-75
2021/03/06 10:01:10;;;;;;;;;;;;;;;9.78;37.44;102258.53;4799866;29;20590;-75
2021/03/06 10:03:43;;;;;;;;;;;;;;;9.91;37.31;102245.31;4795813;29;19936;-76
2021/03/06 10:06:16;;;;;;;;;;;;;;;10.18;36.18;102241.75;4796107;29;19947;-75
2021/03/06 10:08:46;;;;;;;;;;;;;;;10.19;36.05;102246.16;4793155;29;19936;-75
2021/03/06 10:11:14;;;;;;;;;;;;;;;10.34;36.12;102239.94;4798050;29;19940;-75
2021/03/06 10:13:43;;;;;;;;;;;;;;;10.68;36.12;102226.66;4799030;29;19936;-75
2021/03/06 10:16:10;;;;;;;;;;;;;;;10.99;35.48;102217.66;4798178;29;20262;-75
2021/03/06 10:18:38;;;;;;;;;;;;;;;11.52;34.31;102213.78;4798749;29;20862;-74
2021/03/06 10:21:10;;;;;;;;;;;;;;;12.15;33.15;102208.81;4796708;29;20501;-74
2021/03/06 10:23:38;;;;;;;;;;;;;;;12.19;33.17;102214.06;4795604;29;20113;-75
2021/03/06 10:26:12;;;;;;;;;;;;;;;12.18;33.23;102220.25;4794936;29;20657;-75
2021/03/06 10:28:39;;;;;;;;;;;;;;;12.50;32.60;102216.38;4801859;29;20384;-75
2021/03/06 10:31:30;;;;;;;;;;;;;;;12.47;33.10;102216.41;4803036;29;19937;-75
2021/03/06 10:33:59;;;;;;;;;;;;;;;12.00;34.05;102223.09;4804500;29;19966;-75
2021/03/06 10:36:26;;;;;;;;;;;;;;;11.92;33.85;102234.66;4794998;29;20393;-75
2021/03/06 10:39:14;;;;;;;;;;;;;;;11.91;34.28;102216.97;4796062;29;19961;-75
2021/03/06 10:41:41;;;;;;;;;;;;;;;11.95;34.48;102217.84;4794583;29;20975;-74
2021/03/06 10:44:08;;;;;;;;;;;;;;;12.14;34.12;102215.88;4801293;29;19946;-75
2021/03/06 10:46:35;;;;;;;;;;;;;;;12.31;34.01;102221.00;4799933;29;19939;-75
2021/03/06 10:49:04;;;;;;;;;;;;;;;12.39;33.70;102210.31;4781127;29;19939;-75
2021/03/06 10:51:43;;;;;;;;;;;;;;;12.76;33.15;102200.13;4797953;29;20611;-75
2021/03/06 10:54:10;;;;;;;;;;;;;;;13.14;32.66;102200.47;4781488;29;19936;-75
2021/03/06 10:56:38;;;;;;;;;;;;;;;14.64;30.69;102195.16;4799622;29;20560;-73
2021/03/06 10:59:06;;;;;;;;;;;;;;;15.52;28.55;102195.81;4789379;29;20013;-74
2021/03/06 11:01:44;;;;;;;;;;;;;;;15.32;29.12;102196.28;4801908;29;19937;-73
2021/03/06 11:04:23;;;;;;;;;;;;;;;14.07;31.54;102205.13;4795736;29;19936;-76
2021/03/06 11:06:54;;;;;;;;;;;;;;;13.78;32.15;102203.88;4785467;29;19937;-73
2021/03/06 11:09:24;;;;;;;;;;;;;;;13.60;32.71;102204.19;4796074;29;19937;-73
2021/03/06 11:11:51;;;;;;;;;;;;;;;13.55;32.68;102204.31;4778732;29;19936;-73
2021/03/06 11:14:24;;;;;;;;;;;;;;;13.76;32.69;102205.72;4792364;29;20212;-74
2021/03/06 11:16:51;;;;;;;;;;;;;;;13.82;32.35;102203.84;4793614;29;19937;-73
2021/03/06 11:19:19;;;;;;;;;;;;;;;13.88;32.59;102203.72;4787010;29;20195;-73
2021/03/06 11:21:46;;;;;;;;;;;;;;;14.50;31.60;102210.50;4773083;29;20052;-73
2021/03/06 11:24:13;;;;;;;;;;;;;;;14.55;31.77;102198.88;4795158;29;19943;-73
2021/03/06 11:26:40;;;;;;;;;;;;;;;14.39;32.16;102193.00;4791795;29;19943;-73
2021/03/06 11:29:08;;;;;;;;;;;;;;;14.05;32.49;102182.13;4786417;29;19936;-74
2021/03/06 11:31:52;;;;;;;;;;;;;;;13.91;33.11;102195.69;4775486;29;20264;-72
2021/03/06 11:34:19;;;;;;;;;;;;;;;13.70;33.71;102195.16;4771146;29;20425;-73
2021/03/06 11:36:47;;;;;;;;;;;;;;;13.65;33.65;102196.16;4775750;29;20478;-76
2021/03/06 11:39:14;;;;;;;;;;;;;;;13.61;33.92;102203.31;4791801;29;19936;-74
2021/03/06 11:41:41;;;;;;;;;;;;;;;13.58;33.80;102187.41;4785340;29;20210;-73
2021/03/06 11:44:10;;;;;;;;;;;;;;;13.62;33.94;102175.81;4777081;29;19939;-76
2021/03/06 11:46:55;;;;;;;;;;;;;;;13.83;33.78;102178.97;4791788;29;20553;-77
2021/03/06 11:49:35;;;;;;;;;;;;;;;13.73;33.69;102172.97;4787105;29;20898;-76
2021/03/06 11:52:05;;;;;;;;;;;;;;;13.67;33.99;102171.31;4774109;29;19976;-75
2021/03/06 11:54:33;;;;;;;;;;;;;;;13.80;33.58;102171.06;4793809;29;20036;-75
2021/03/06 11:57:20;;;;;;;;;;;;;;;13.76;33.77;102167.56;4780402;29;20565;-76
2021/03/06 11:59:48;;;;;;;;;;;;;;;13.51;34.32;102165.34;4792723;29;19929;-76
2021/03/06 12:02:16;;;;;;;;;;;;;;;13.50;34.52;102162.72;4793495;29;19939;-77
2021/03/06 12:04:43;;;;;;;;;;;;;;;13.52;34.73;102155.63;4788424;29;19937;-76
2021/03/06 12:07:13;;;;;;;;;;;;;;;13.71;34.21;102167.69;4791923;29;19933;-75
2021/03/06 12:09:44;;;;;;;;;;;;;;;13.53;34.69;102152.91;4779846;29;19964;-77
2021/03/06 12:12:13;;;;;;;;;;;;;;;13.80;34.17;102141.81;4779581;29;20035;-76
2021/03/06 12:14:40;;;;;;;;;;;;;;;13.67;34.35;102144.72;4795441;29;19937;-76
2021/03/06 12:20:15;;;;;;;;;;;;;;;14.89;32.06;102128.00;4726194;29;19941;-74
2021/03/06 12:22:42;;;;;;;;;;;;;;;14.57;32.73;102121.63;4726789;29;20126;-74
2021/03/06 12:25:10;;;;;;;;;;;;;;;14.50;32.92;102125.31;4726852;29;19949;-74
2021/03/06 12:27:37;;;;;;;;;;;;;;;14.54;33.15;102127.03;4731795;29;19998;-74
2021/03/06 12:30:12;;;;;;;;;;;;;;;14.23;33.34;102112.56;4716865;29;20265;-74
2021/03/06 12:32:39;;;;;;;;;;;;;;;14.01;33.65;102122.78;4729352;29;19937;-74
2021/03/06 12:35:08;;;;;;;;;;;;;;;14.17;33.82;102112.72;4718328;29;19943;-73
2021/03/06 12:37:36;;;;;;;;;;;;;;;14.52;33.19;102104.88;4730154;29;20726;-73
2021/03/06 12:40:03;;;;;;;;;;;;;;;14.38;33.24;102105.16;4743073;29;19937;-73
2021/03/06 12:42:30;;;;;;;;;;;;;;;14.37;33.44;102108.75;4722902;29;19953;-73
2021/03/06 12:44:57;;;;;;;;;;;;;;;14.24;33.72;102106.34;4720333;29;20063;-74
2021/03/06 12:47:24;;;;;;;;;;;;;;;14.39;33.43;102105.16;4723231;29;19937;-73
2021/03/06 12:49:51;;;;;;;;;;;;;;;14.61;33.30;102107.31;4722283;29;19965;-74
2021/03/06 12:52:18;;;;;;;;;;;;;;;14.34;33.68;102101.72;4725263;29;20542;-74
2021/03/06 12:54:45;;;;;;;;;;;;;;;14.16;33.83;102104.75;4717638;29;21108;-74
2021/03/06 12:57:12;;;;;;;;;;;;;;;14.08;33.89;102096.94;4728532;29;19933;-73
2021/03/06 12:59:39;;;;;;;;;;;;;;;13.90;34.52;102104.34;4720604;29;19953;-73
2021/03/06 13:02:06;;;;;;;;;;;;;;;13.85;34.82;102089.41;4725396;29;19933;-74
2021/03/06 13:04:33;;;;;;;;;;;;;;;13.84;34.88;102092.97;4719786;29;19933;-73
2021/03/06 13:07:00;;;;;;;;;;;;;;;13.66;35.26;102081.78;4716119;29;20396;-73
2021/03/06 13:09:27;;;;;;;;;;;;;;;13.59;35.31;102088.13;4719218;29;19937;-73
2021/03/06 13:11:55;;;;;;;;;;;;;;;13.45;35.65;102088.38;4734696;29;19941;-73
2021/03/06 13:14:22;;;;;;;;;;;;;;;13.54;35.41;102087.31;4717194;29;20037;-73
2021/03/06 13:16:49;;;;;;;;;;;;;;;13.59;35.50;102082.78;4725937;29;19994;-73
2021/03/06 15:55:55;;;;;;;;;;;;;;;11.66;40.00;101900.91;5692516;23;20423;-72
2021/03/06 15:58:23;;;;;;;;;;;;;;;11.54;40.36;101906.34;4759362;29;20039;-71
2021/03/06 16:00:50;;;;;;;;;;;;;;;11.52;40.15;101906.38;4754629;29;20510;-71
2021/03/06 16:03:17;;;;;;;;;;;;;;;11.40;40.79;101909.16;4748292;29;19938;-72
2021/03/06 16:05:44;;;;;;;;;;;;;;;11.27;40.49;101892.56;4746890;29;20035;-74
2021/03/06 16:08:11;;;;;;;;;;;;;;;11.22;41.00;101902.31;4752135;29;19937;-73
2021/03/06 16:10:38;;;;;;;;;;;;;;;11.16;40.99;101902.38;4769737;29;20469;-73
2021/03/06 16:13:05;;;;;;;;;;;;;;;11.07;41.17;101908.66;4757684;29;19996;-73
2021/03/06 16:15:32;;;;;;;;;;;;;;;10.97;41.36;101907.88;4777994;29;19989;-73
2021/03/06 16:18:01;;;;;;;;;;;;;;;10.91;41.48;101906.19;4766335;29;20519;-73
2021/03/06 16:20:30;;;;;;;;;;;;;;;10.85;41.55;101911.53;4751214;29;20591;-73
2021/03/06 16:22:57;;;;;;;;;;;;;;;10.83;41.36;101902.72;4746830;29;20017;-73